createdAt,value
2022-12-11T00:00:28.872Z,-1.60
2022-12-11T00:02:56.649Z,-1.60
2022-12-11T00:05:24.045Z,-1.60
2022-12-11T00:07:51.735Z,-1.60
2022-12-11T00:10:18.988Z,-1.60
2022-12-11T00:12:46.198Z,-1.60
2022-12-11T00:15:13.735Z,-1.60
2022-12-11T00:17:41.314Z,-1.60
2022-12-11T00:20:09.809Z,-1.60
2022-12-11T00:22:36.998Z,-1.60
2022-12-11T00:25:04.564Z,-1.60
2022-12-11T00:27:31.982Z,-1.60
2022-12-11T00:30:00.372Z,-1.60
2022-12-11T00:32:28.602Z,-1.60
2022-12-11T00:34:56.096Z,-1.60
2022-12-11T00:37:23.589Z,-1.60
2022-12-11T00:39:50.773Z,-1.60
2022-12-11T00:42:17.912Z,-1.60
2022-12-11T00:44:45.083Z,-1.60
2022-12-11T00:47:12.762Z,-1.60
2022-12-11T00:49:42.830Z,-1.60
2022-12-11T00:52:12.679Z,-1.60
2022-12-11T00:54:39.865Z,-1.60
2022-12-11T00:57:07.008Z,-1.60
2022-12-11T00:59:34.386Z,-1.60
2022-12-11T01:02:01.637Z,-1.60
2022-12-11T01:04:28.857Z,-1.60
2022-12-11T01:06:56.017Z,-1.60
2022-12-11T01:09:42.025Z,-1.60
2022-12-11T01:12:09.271Z,-1.60
2022-12-11T01:14:36.994Z,-1.70
2022-12-11T01:17:04.660Z,-1.60
2022-12-11T01:19:31.808Z,-1.60
2022-12-11T01:21:59.150Z,-1.70
2022-12-11T01:24:26.341Z,-1.70
2022-12-11T01:26:54.141Z,-1.70
2022-12-11T01:29:21.288Z,-1.70
2022-12-11T01:31:48.437Z,-1.70
2022-12-11T01:34:15.605Z,-1.70
2022-12-11T01:36:43.692Z,-1.70
2022-12-11T01:39:10.881Z,-1.70
2022-12-11T01:41:38.176Z,-1.70
2022-12-11T01:44:31.338Z,-1.70
2022-12-11T01:46:58.540Z,-1.70
2022-12-11T01:49:28.904Z,-1.70
2022-12-11T01:52:03.064Z,-1.70
2022-12-11T01:54:30.654Z,-1.70
2022-12-11T01:57:03.795Z,-1.70
2022-12-11T01:59:34.527Z,-1.70
2022-12-11T02:25:49.641Z,-1.40
2022-12-11T02:33:51.588Z,-1.80
2022-12-11T02:36:21.239Z,-1.80
2022-12-11T02:38:51.914Z,-1.80
2022-12-11T02:41:21.846Z,-1.80
2022-12-11T02:43:50.992Z,-1.90
2022-12-11T02:46:20.045Z,-1.90
2022-12-11T02:48:50.756Z,-1.90
2022-12-11T02:51:25.421Z,-1.90
2022-12-11T02:53:56.834Z,-1.90
2022-12-11T02:56:34.067Z,-1.90
2022-12-11T02:59:07.154Z,-1.90
2022-12-11T03:01:34.440Z,-1.90
2022-12-11T03:04:02.001Z,-1.90
2022-12-11T03:06:36.944Z,-1.90
2022-12-11T03:09:05.249Z,-1.90
2022-12-11T03:11:32.678Z,-1.90
2022-12-11T03:14:02.765Z,-1.90
2022-12-11T03:17:05.086Z,-1.90
2022-12-11T03:19:37.038Z,-1.90
2022-12-11T03:22:33.874Z,-2.00
2022-12-11T03:25:08.754Z,-2.00
2022-12-11T03:27:50.472Z,-2.00
2022-12-11T03:30:20.212Z,-1.90
2022-12-11T03:32:58.752Z,-1.90
2022-12-11T03:35:30.819Z,-2.00
2022-12-11T03:38:03.646Z,-2.00
2022-12-11T03:40:33.956Z,-2.00
2022-12-11T03:43:03.100Z,-2.00
2022-12-11T03:45:30.896Z,-2.00
2022-12-11T03:48:00.535Z,-2.10
2022-12-11T03:50:31.025Z,-2.00
2022-12-11T03:53:00.423Z,-2.00
2022-12-11T03:55:31.169Z,-2.00
2022-12-11T03:57:58.635Z,-2.10
2022-12-11T04:00:26.544Z,-2.10
2022-12-11T04:03:13.866Z,-2.10
2022-12-11T04:06:01.767Z,-2.10
2022-12-11T04:08:29.222Z,-2.10
2022-12-11T04:11:14.934Z,-2.10
2022-12-11T04:13:42.501Z,-2.10
2022-12-11T04:16:10.307Z,-2.10
2022-12-11T04:18:56.307Z,-2.10
2022-12-11T04:21:41.933Z,-2.00
2022-12-11T04:24:15.447Z,-2.00
2022-12-11T04:26:45.225Z,-2.00
2022-12-11T04:29:13.562Z,-2.00
2022-12-11T04:31:41.037Z,-2.00
2022-12-11T04:34:08.310Z,-2.10
2022-12-11T04:36:35.899Z,-2.10
2022-12-11T04:39:04.760Z,-2.10
2022-12-11T04:41:32.487Z,-2.10
2022-12-11T04:43:59.669Z,-2.10
2022-12-11T04:46:27.035Z,-2.10
2022-12-11T04:48:57.741Z,-2.10
2022-12-11T04:51:26.182Z,-2.10
2022-12-11T04:53:53.383Z,-2.10
2022-12-11T04:56:21.144Z,-2.10
2022-12-11T04:58:48.477Z,-2.20
2022-12-11T05:01:19.729Z,-2.20
2022-12-11T05:03:47.256Z,-2.20
2022-12-11T05:06:15.036Z,-2.10
2022-12-11T05:08:45.050Z,-2.20
2022-12-11T05:11:14.916Z,-2.20
2022-12-11T05:13:42.870Z,-2.30
2022-12-11T05:16:12.188Z,-2.40
2022-12-11T05:18:39.645Z,-2.40
2022-12-11T05:21:10.240Z,-2.30
2022-12-11T05:23:37.738Z,-2.30
2022-12-11T05:26:08.768Z,-2.30
2022-12-11T05:28:38.895Z,-2.20
2022-12-11T05:31:11.968Z,-2.10
2022-12-11T05:33:39.265Z,-2.10
2022-12-11T05:36:07.864Z,-2.10
2022-12-11T05:38:35.210Z,-2.10
2022-12-11T05:41:07.590Z,-2.10
2022-12-11T05:43:36.843Z,-2.10
2022-12-11T05:46:08.100Z,-2.00
2022-12-11T05:48:36.682Z,-2.00
2022-12-11T05:51:04.567Z,-2.00
2022-12-11T05:53:32.578Z,-2.00
2022-12-11T05:56:05.005Z,-2.00
2022-12-11T05:58:33.411Z,-2.00
2022-12-11T06:01:01.140Z,-2.10
2022-12-11T06:03:28.488Z,-2.10
2022-12-11T06:05:55.970Z,-2.10
2022-12-11T06:08:23.656Z,-2.10
2022-12-11T06:10:51.126Z,-2.10
2022-12-11T06:13:18.450Z,-2.10
2022-12-11T06:15:45.901Z,-2.00
2022-12-11T06:18:13.110Z,-2.00
2022-12-11T06:20:40.405Z,-2.00
2022-12-11T06:23:08.109Z,-2.10
2022-12-11T06:25:35.347Z,-2.10
2022-12-11T06:28:03.080Z,-2.10
2022-12-11T06:30:38.884Z,-2.10
2022-12-11T06:33:07.291Z,-2.10
2022-12-11T06:35:41.409Z,-2.10
2022-12-11T06:38:10.573Z,-2.10
2022-12-11T06:40:38.236Z,-2.10
2022-12-11T06:43:05.583Z,-2.20
2022-12-11T06:45:33.274Z,-2.20
2022-12-11T06:48:00.571Z,-2.20
2022-12-11T06:50:27.761Z,-2.20
2022-12-11T06:52:56.679Z,-2.20
2022-12-11T06:55:23.903Z,-2.30
2022-12-11T06:57:51.374Z,-2.40
2022-12-11T07:00:18.605Z,-2.50
2022-12-11T07:02:45.833Z,-2.70
2022-12-11T07:05:13.410Z,-2.90
2022-12-11T07:07:40.921Z,-3.10
2022-12-11T07:10:08.976Z,-3.30
2022-12-11T07:12:36.653Z,-3.50
2022-12-11T07:15:05.402Z,-3.80
2022-12-11T07:17:32.625Z,-4.00
2022-12-11T07:20:25.148Z,-4.10
2022-12-11T07:22:54.762Z,-4.20
2022-12-11T07:25:21.956Z,-4.20
2022-12-11T07:27:49.608Z,-4.10
2022-12-11T07:30:16.968Z,-4.10
2022-12-11T07:32:44.701Z,-4.20
2022-12-11T07:35:13.005Z,-4.20
2022-12-11T07:37:41.494Z,-4.30
2022-12-11T07:40:09.770Z,-4.20
2022-12-11T07:42:40.302Z,-4.20
2022-12-11T07:45:12.072Z,-4.20
2022-12-11T07:47:39.626Z,-4.20
2022-12-11T07:50:38.062Z,-4.10
2022-12-11T07:53:07.651Z,-4.20
2022-12-11T07:55:35.061Z,-4.20
2022-12-11T07:58:02.873Z,-4.20
2022-12-11T08:00:30.071Z,-4.20
2022-12-11T08:02:59.280Z,-4.30
2022-12-11T08:05:26.594Z,-4.30
2022-12-11T08:07:53.792Z,-4.40
2022-12-11T08:10:21.266Z,-4.40
2022-12-11T08:12:49.117Z,-4.40
2022-12-11T08:15:16.696Z,-4.30
2022-12-11T08:17:44.464Z,-4.30
2022-12-11T08:20:11.989Z,-4.20
2022-12-11T08:22:39.453Z,-4.20
2022-12-11T08:25:08.900Z,-4.00
2022-12-11T08:27:36.826Z,-3.60
2022-12-11T08:30:04.657Z,-3.30
2022-12-11T08:32:32.490Z,-2.80
2022-12-11T08:35:01.205Z,-2.50
2022-12-11T08:37:29.564Z,-2.50
2022-12-11T08:39:56.820Z,-2.70
2022-12-11T08:42:24.302Z,-2.70
2022-12-11T08:44:52.428Z,-2.40
2022-12-11T08:47:20.857Z,-2.00
2022-12-11T08:49:48.006Z,-0.90
2022-12-11T08:52:15.407Z,-0.60
2022-12-11T08:54:43.431Z,-0.60
2022-12-11T08:57:11.064Z,-0.90
2022-12-11T08:59:38.352Z,-1.10
2022-12-11T09:02:06.128Z,-1.00
2022-12-11T09:04:33.484Z,-1.00
2022-12-11T09:07:01.021Z,-1.00
2022-12-11T09:09:28.301Z,-0.80
2022-12-11T09:11:56.514Z,-0.70
2022-12-11T09:14:23.755Z,-0.80
2022-12-11T09:16:50.920Z,0.10
2022-12-11T09:19:18.106Z,1.50
2022-12-11T09:21:45.826Z,2.70
2022-12-11T09:24:13.674Z,3.90
2022-12-11T09:26:41.603Z,4.80
2022-12-11T09:29:09.085Z,5.30
2022-12-11T09:31:37.026Z,5.60
2022-12-11T09:34:06.965Z,6.00
2022-12-11T09:36:35.260Z,6.30
2022-12-11T09:39:05.874Z,6.40
2022-12-11T09:41:46.605Z,5.50
2022-12-11T09:44:45.847Z,5.10
2022-12-11T09:47:40.691Z,4.80
2022-12-11T09:50:11.372Z,5.10
2022-12-11T09:52:53.869Z,4.60
2022-12-11T09:55:29.111Z,4.10
2022-12-11T09:58:54.696Z,4.50
2022-12-11T10:01:49.099Z,3.30
2022-12-11T10:04:47.012Z,2.90
2022-12-11T10:07:17.231Z,2.40
2022-12-11T10:10:19.944Z,3.50
2022-12-11T10:13:02.743Z,3.60
2022-12-11T10:15:41.010Z,2.70
2022-12-11T10:18:16.246Z,2.80
2022-12-11T10:20:45.181Z,2.30
2022-12-11T10:23:24.642Z,2.00
2022-12-11T10:26:02.441Z,2.00
2022-12-11T10:28:29.974Z,2.30
2022-12-11T10:31:22.146Z,2.00
2022-12-11T10:34:01.909Z,1.50
2022-12-11T10:36:34.046Z,2.00
2022-12-11T10:39:02.386Z,2.50
2022-12-11T10:41:41.929Z,2.60
2022-12-11T10:44:25.244Z,1.80
2022-12-11T10:47:12.492Z,2.20
2022-12-11T10:49:44.529Z,3.30
2022-12-11T10:52:35.027Z,3.70
2022-12-11T10:55:27.091Z,3.90
2022-12-11T10:57:58.477Z,6.40
2022-12-11T11:00:34.072Z,7.70
2022-12-11T11:03:02.624Z,8.00
2022-12-11T11:05:37.336Z,9.00
2022-12-11T11:08:19.609Z,10.20
2022-12-11T11:11:05.296Z,11.30
2022-12-11T11:13:33.123Z,12.10
2022-12-11T11:16:06.435Z,12.80
2022-12-11T11:18:35.048Z,13.40
2022-12-11T11:21:03.105Z,14.00
2022-12-11T11:23:30.854Z,13.80
2022-12-11T11:26:00.587Z,14.00
2022-12-11T11:28:37.890Z,14.70
2022-12-11T11:31:17.478Z,15.20
2022-12-11T11:33:46.913Z,15.30
2022-12-11T11:36:40.483Z,15.50
2022-12-11T13:54:59.056Z,5.50
2022-12-11T13:57:28.572Z,5.30
2022-12-11T13:59:59.363Z,4.90
2022-12-11T14:02:34.062Z,4.60
2022-12-11T14:05:12.663Z,4.40
2022-12-11T14:07:52.749Z,4.20
2022-12-11T14:10:29.948Z,3.90
2022-12-11T14:13:17.552Z,3.40
2022-12-11T14:15:45.540Z,3.10
2022-12-11T14:18:17.972Z,2.90
2022-12-11T14:20:45.596Z,2.70
2022-12-11T14:23:21.777Z,2.40
2022-12-11T14:26:02.673Z,2.00
2022-12-11T14:28:37.307Z,1.60
2022-12-11T14:31:05.706Z,1.30
2022-12-11T14:33:38.455Z,1.10
2022-12-11T14:36:06.852Z,0.80
2022-12-11T14:38:44.050Z,0.50
2022-12-11T14:41:18.157Z,0.30
2022-12-11T14:43:56.384Z,0.10
2022-12-11T14:46:32.616Z,-0.20
2022-12-11T14:49:06.374Z,-0.30
2022-12-11T14:51:37.997Z,-0.60
2022-12-11T14:54:07.798Z,-0.90
2022-12-11T14:56:35.503Z,-1.10
2022-12-11T14:59:06.523Z,-1.20
2022-12-11T15:01:36.684Z,-1.50
2022-12-11T15:04:22.617Z,-1.70
2022-12-11T15:06:51.989Z,-1.90
2022-12-11T15:09:21.073Z,-2.10
2022-12-11T15:11:50.315Z,-2.30
2022-12-11T15:14:20.132Z,-2.50
2022-12-11T15:16:49.935Z,-2.60
2022-12-11T15:19:30.482Z,-2.80
2022-12-11T15:22:03.070Z,-3.10
2022-12-11T15:24:48.661Z,-3.30
2022-12-11T15:27:34.039Z,-3.30
2022-12-11T15:30:02.128Z,-3.50
2022-12-11T15:32:30.431Z,-3.70
2022-12-11T15:35:00.613Z,-3.70
2022-12-11T15:37:31.847Z,-3.70
2022-12-11T15:40:00.998Z,-3.70
2022-12-11T15:42:34.538Z,-3.80
2022-12-11T15:50:02.040Z,-3.80
2022-12-11T15:54:58.077Z,-3.60
2022-12-11T15:59:54.600Z,-3.60
2022-12-11T16:02:22.141Z,-3.70
2022-12-11T16:04:50.764Z,-3.70
2022-12-11T16:07:23.624Z,-3.70
2022-12-11T16:09:51.611Z,-3.70
2022-12-11T16:12:19.131Z,-3.60
2022-12-11T16:14:46.769Z,-3.60
2022-12-11T16:17:15.557Z,-3.50
2022-12-11T16:19:44.322Z,-3.50
2022-12-11T16:29:40.047Z,-3.40
2022-12-11T16:32:08.661Z,-3.40
2022-12-11T16:34:37.307Z,-3.40
2022-12-11T16:37:06.564Z,-3.30
2022-12-11T16:39:34.948Z,-3.20
2022-12-11T16:42:02.453Z,-3.10
2022-12-11T16:46:58.319Z,-3.20
2022-12-11T16:49:26.086Z,-3.10
2022-12-11T16:51:53.265Z,-3.10
2022-12-11T16:54:20.464Z,-3.10
2022-12-11T16:56:48.066Z,-3.10
2022-12-11T16:59:16.691Z,-3.10
2022-12-11T17:01:45.027Z,-3.10
2022-12-11T17:04:12.232Z,-3.20
2022-12-11T17:06:39.375Z,-3.20
2022-12-11T17:09:06.924Z,-3.20
2022-12-11T17:11:34.214Z,-3.20
2022-12-11T17:14:01.465Z,-3.30
2022-12-11T17:18:57.954Z,-3.30
2022-12-11T17:21:25.223Z,-3.30
2022-12-11T17:23:52.487Z,-3.30
2022-12-11T17:26:20.148Z,-3.30
2022-12-11T17:28:47.553Z,-3.50
2022-12-11T17:31:18.394Z,-3.50
2022-12-11T17:33:46.562Z,-3.50
2022-12-11T17:36:16.196Z,-3.60
2022-12-11T17:38:43.674Z,-3.70
2022-12-11T17:43:52.683Z,-3.70
2022-12-11T17:46:20.597Z,-3.70
2022-12-11T17:48:48.607Z,-3.70
2022-12-11T17:51:23.641Z,-3.80
2022-12-11T17:53:55.530Z,-3.80
2022-12-11T17:56:23.828Z,-4.00
2022-12-11T17:58:51.204Z,-4.00
2022-12-11T18:01:19.307Z,-4.10
2022-12-11T18:03:46.882Z,-4.00
2022-12-11T18:06:15.942Z,-4.10
2022-12-11T18:08:45.442Z,-4.10
2022-12-11T18:11:16.553Z,-4.00
2022-12-11T18:13:45.081Z,-4.00
2022-12-11T18:16:27.438Z,-4.00
2022-12-11T18:18:56.324Z,-4.00
2022-12-11T18:21:26.805Z,-4.00
2022-12-11T18:23:54.804Z,-4.10
2022-12-11T18:26:22.081Z,-4.00
2022-12-11T18:28:50.151Z,-3.90
2022-12-11T18:31:18.133Z,-3.90
2022-12-11T18:33:46.579Z,-3.90
2022-12-11T18:36:15.993Z,-3.90
2022-12-11T18:38:43.391Z,-3.80
2022-12-11T18:41:13.019Z,-3.80
2022-12-11T18:43:41.516Z,-3.80
2022-12-11T18:46:14.799Z,-3.70
2022-12-11T18:48:43.532Z,-3.70
2022-12-11T18:51:14.788Z,-3.60
2022-12-11T18:53:42.008Z,-3.50
2022-12-11T18:56:13.213Z,-3.50
2022-12-11T18:58:40.810Z,-3.40
2022-12-11T19:01:15.350Z,-3.30
2022-12-11T19:03:44.609Z,-3.30
2022-12-11T19:06:14.863Z,-3.30
2022-12-11T19:08:42.510Z,-3.20
2022-12-11T19:11:13.770Z,-3.20
2022-12-11T19:13:41.053Z,-3.20
2022-12-11T19:16:08.458Z,-3.20
2022-12-11T19:18:35.769Z,-3.10
2022-12-11T19:21:28.078Z,-3.10
2022-12-11T19:23:55.667Z,-3.10
2022-12-11T19:26:24.201Z,-3.20
2022-12-11T19:28:53.586Z,-3.20
2022-12-11T19:31:23.266Z,-3.20
2022-12-11T19:33:50.773Z,-3.20
2022-12-11T19:36:21.334Z,-3.10
2022-12-11T19:38:49.180Z,-3.10
2022-12-11T19:41:20.778Z,-3.00
2022-12-11T19:43:48.668Z,-3.00
2022-12-11T19:46:17.641Z,-3.00
2022-12-11T19:48:45.653Z,-3.00
2022-12-11T19:51:16.450Z,-2.90
2022-12-11T19:53:45.083Z,-2.90
2022-12-11T19:56:12.819Z,-2.80
2022-12-11T19:58:41.633Z,-2.90
2022-12-11T20:01:09.516Z,-2.90
2022-12-11T20:03:38.253Z,-2.80
2022-12-11T20:06:08.017Z,-2.90
2022-12-11T20:08:44.519Z,-2.90
2022-12-11T20:11:17.875Z,-2.90
2022-12-11T20:13:49.812Z,-2.80
2022-12-11T20:16:28.822Z,-2.80
2022-12-11T20:19:12.231Z,-2.80
2022-12-11T20:21:40.167Z,-2.70
2022-12-11T20:24:08.470Z,-2.80
2022-12-11T20:26:36.876Z,-2.80
2022-12-11T20:29:07.308Z,-2.70
2022-12-11T20:31:35.953Z,-2.70
2022-12-11T20:34:04.181Z,-2.70
2022-12-11T20:36:32.051Z,-2.70
2022-12-11T20:38:59.734Z,-2.70
2022-12-11T20:41:27.306Z,-2.70
2022-12-11T20:43:54.614Z,-2.70
2022-12-11T20:46:25.589Z,-2.60
2022-12-11T20:48:55.017Z,-2.70
2022-12-11T20:51:26.163Z,-2.60
2022-12-11T20:53:58.911Z,-2.70
2022-12-11T20:56:29.276Z,-2.60
2022-12-11T20:58:57.822Z,-2.60
2022-12-11T21:01:27.333Z,-2.60
2022-12-11T21:03:54.697Z,-2.60
2022-12-11T21:06:31.034Z,-2.60
2022-12-11T21:09:00.330Z,-2.60
2022-12-11T21:11:28.014Z,-2.60
2022-12-11T21:13:55.529Z,-2.60
2022-12-11T21:16:22.860Z,-2.50
2022-12-11T21:18:50.434Z,-2.60
2022-12-11T21:21:18.090Z,-2.60
2022-12-11T21:23:45.822Z,-2.60
2022-12-11T21:26:13.155Z,-2.60
2022-12-11T21:28:40.926Z,-2.60
2022-12-11T21:31:11.423Z,-2.60
2022-12-11T21:33:38.912Z,-2.60
2022-12-11T21:36:07.145Z,-2.60
2022-12-11T21:38:34.806Z,-2.50
2022-12-11T21:41:14.231Z,-2.60
2022-12-11T21:44:56.472Z,-2.50
2022-12-11T21:46:33.652Z,-2.50
2022-12-11T21:49:00.975Z,-2.50
2022-12-11T21:51:35.914Z,-2.50
2022-12-11T21:54:06.581Z,-2.50
2022-12-11T21:56:33.935Z,-2.50
2022-12-11T21:59:01.876Z,-2.50
2022-12-11T22:01:37.015Z,-2.40
2022-12-11T22:04:05.378Z,-2.40
2022-12-11T22:06:33.218Z,-2.40
2022-12-11T22:09:00.629Z,-2.40
2022-12-11T22:11:31.068Z,-2.30
2022-12-11T22:13:58.635Z,-2.30
2022-12-11T22:16:26.131Z,-2.30
2022-12-11T22:18:53.430Z,-2.30
2022-12-11T22:21:21.024Z,-2.30
2022-12-11T22:23:48.376Z,-2.30
2022-12-11T22:26:22.516Z,-2.20
2022-12-11T22:28:50.888Z,-2.20
2022-12-11T22:31:21.323Z,-2.20
2022-12-11T22:33:50.018Z,-2.30
2022-12-11T22:36:20.414Z,-2.30
2022-12-11T22:38:47.719Z,-2.30
2022-12-11T22:41:22.654Z,-2.30
2022-12-11T22:43:50.306Z,-2.30
2022-12-11T22:46:18.934Z,-2.40
2022-12-11T22:48:46.576Z,-2.50
2022-12-11T22:51:13.875Z,-2.60
2022-12-11T22:53:41.096Z,-2.60
2022-12-11T22:56:11.020Z,-2.60
2022-12-11T22:58:39.050Z,-2.50
2022-12-11T23:01:12.590Z,-2.50
2022-12-11T23:03:41.034Z,-2.40
2022-12-11T23:06:11.135Z,-2.40
2022-12-11T23:08:39.457Z,-2.40
2022-12-11T23:11:12.380Z,-2.50
2022-12-11T23:13:40.577Z,-2.50
2022-12-11T23:16:09.601Z,-2.50
2022-12-11T23:18:37.112Z,-2.50
2022-12-11T23:21:04.855Z,-2.50
2022-12-11T23:23:32.237Z,-2.60
2022-12-11T23:25:59.718Z,-2.70
2022-12-11T23:28:27.216Z,-2.70
2022-12-11T23:30:54.962Z,-2.70
2022-12-11T23:33:22.452Z,-2.70
2022-12-11T23:35:50.673Z,-2.70
2022-12-11T23:38:17.884Z,-2.80
2022-12-11T23:40:45.111Z,-2.90
2022-12-11T23:43:12.285Z,-3.00
2022-12-11T23:45:39.491Z,-3.10
2022-12-11T23:48:06.988Z,-3.20
2022-12-11T23:50:34.270Z,-3.30
2022-12-11T23:53:02.048Z,-3.30
2022-12-11T23:55:29.456Z,-3.30
2022-12-11T23:57:56.615Z,-3.30
